Moody Air Force Base, GA

11:21 AM EST on February 12, 2016 (GMT -0500)
Moody Air Force Base | | Change Station
CLOSE
Current Station
Airport
Location: Valdosta,
Elevation: 233 ft
Nearby Weather Stations
Active Advisory: Flood Warning

Elev 233 ft 30.97 °N, 83.19 °W | Updated 2 hours ago

Overcast
Overcast
59 °F
Feels Like 59 °F
N
15
Wind Variable Wind from SW
Gusts 22 mph

Today
High -- | Low -- °F
--% Chance of Precip.
Yesterday
High -- | Low -- °F
Precip. -- in
Pressure 30.16 in
Visibility 10.0 miles
Clouds Overcast 800 ft
Dew Point 54 °F
Humidity 82%
Rainfall 0.00 in
Snow Depth Not available.
7:16 AM 6:17 PM
Waxing Crescent, 21% visible
SPECI KVAD 121400Z AUTO 23013G19KT 10SM OVC008 15/12 A3016 RMK AO2 $
Pressure 30.16 in
Visibility 10.0 miles
Clouds Overcast 800 ft
Dew Point 54 °F
Humidity 82%
Rainfall 0.00 in
Snow Depth Not available.
7:16 AM 6:17 PM
Waxing Crescent, 21% visible
SPECI KVAD 121400Z AUTO 23013G19KT 10SM OVC008 15/12 A3016 RMK AO2 $

10-Day Weather Forecast

Almanac

Astronomy

Feb. 12, 2016 Rise Set
Actual Time
Civil Twilight
Nautical Twilight
Astronomical Twilight
Moon
Length of Visible Light
Length of Day
Tomorrow will be .
, % of the Moon is Illuminated

Today's Extremes

State Highs State Lows

Community

WunderPhotos

Upload Photos

1,892,350 photos uploaded!

WunderBlog® & News

Nearby

Air Quality

  Air Quality AQ Index Pollutant
Not available.

Snow Depth

Station Depth Elevation

Earthquake Activity

City Distance Mag. Time & Date
Minimum magnitude displayed is 2.5.

Coastal Water Temperatures

Place Temperature

Stations

Nearby Weather Stations

Station Location Temp. Windchill Dew Point Humidity Wind Precip. Elev Updated Type
                   

Watches & Warnings

Flood Warning
Issued: 10:17 AM EST Feb. 12, 2016 – National Weather Service

The Flood Warning continues for
the Withlacoochee River near Quitman (us 84).
* Until further notice.
* At 9:00 am Friday the stage was 102.8 feet.
* Minor flooding is occurring and minor flooding is forecast.
* Flood stage is 102.0 feet.
* Impact: at 102.0 feet: minor flood stage reached. River overflows
banks into wooded bottomlands.


Lat... Lon 3084 8346 3074 8355 3064 8342 3063 8322 3073 8341 3079 8335